Time;durP1;ratioP1;P1;durP2;ratioP2;P2;SDS_P1;SDS_P2;PMS_P1;PMS_P2;Temp;Humidity;BMP_temperature;BMP_pressure;BME280_temperature;BME280_humidity;BME280_pressure;Samples;Min_cycle;Max_cycle;Signal;HPM_P1;HPM_P2
2022/01/13 00:02:15;;;;;;;6.07;2.80;;;;;;;9.47;nan;102287.97;4868774;29;20478;-86
2022/01/13 00:04:46;;;;;;;8.73;2.30;;;;;;;9.51;nan;102283.94;4884073;29;20450;-86
2022/01/13 00:07:13;;;;;;;10.00;2.80;;;;;;;9.61;nan;102278.47;4878577;29;20504;-87
2022/01/13 00:09:43;;;;;;;10.17;3.30;;;;;;;9.66;nan;102274.25;4887184;29;20940;-86
2022/01/13 00:12:13;;;;;;;8.50;2.60;;;;;;;9.69;nan;102264.91;4872395;29;20452;-86
2022/01/13 00:14:56;;;;;;;9.63;2.90;;;;;;;9.73;nan;102270.94;4886658;29;20827;-86
2022/01/13 00:17:32;;;;;;;6.97;2.93;;;;;;;9.81;nan;102268.31;4891278;29;20449;-87
2022/01/13 00:20:27;;;;;;;6.20;2.30;;;;;;;9.84;nan;102265.28;4903159;29;20469;-86
2022/01/13 00:25:56;;;;;;;8.70;3.03;;;;;;;9.84;nan;102246.16;4885788;29;20465;-86
2022/01/13 00:28:25;;;;;;;9.10;3.00;;;;;;;9.94;nan;102271.56;4883059;29;20542;-86
2022/01/13 00:30:56;;;;;;;11.40;3.30;;;;;;;9.98;nan;102260.19;4853081;29;20462;-87
2022/01/13 00:33:25;;;;;;;6.23;2.53;;;;;;;10.00;nan;102266.34;4884051;29;20472;-87
2022/01/13 00:35:55;;;;;;;11.30;3.50;;;;;;;10.02;nan;102269.75;4881322;29;20460;-86
2022/01/13 00:38:25;;;;;;;7.93;2.43;;;;;;;9.97;nan;102258.47;4853089;29;20457;-87
2022/01/13 00:40:53;;;;;;;6.73;2.60;;;;;;;10.01;nan;102265.31;4868270;29;20819;-86
2022/01/13 00:43:22;;;;;;;13.30;3.00;;;;;;;10.01;nan;102253.53;4875965;29;20541;-86
2022/01/13 00:45:49;;;;;;;8.07;3.23;;;;;;;10.01;nan;102253.53;4886448;29;20457;-86
2022/01/13 00:48:17;;;;;;;7.00;2.53;;;;;;;10.02;nan;102249.78;4901840;29;20951;-86
2022/01/13 00:50:47;;;;;;;10.83;2.70;;;;;;;9.92;nan;102233.47;4882808;29;20804;-86
2022/01/13 00:53:16;;;;;;;9.87;3.23;;;;;;;10.04;nan;102259.53;4898391;29;20446;-87
2022/01/13 00:58:33;;;;;;;5.13;2.00;;;;;;;10.04;nan;102247.75;4876877;29;20491;-86
2022/01/13 01:01:02;;;;;;;5.30;2.37;;;;;;;10.02;nan;102244.31;4864300;29;20455;-86
2022/01/13 01:03:30;;;;;;;7.60;2.17;;;;;;;10.03;nan;102235.97;4863844;29;20554;-86
2022/01/13 01:05:58;;;;;;;9.40;2.90;;;;;;;10.00;nan;102227.25;4849298;29;20955;-86
2022/01/13 01:08:26;;;;;;;8.43;2.57;;;;;;;10.02;nan;102236.13;4848842;29;20475;-86
2022/01/13 01:10:55;;;;;;;10.43;2.60;;;;;;;9.99;nan;102240.06;4848752;29;20520;-86
2022/01/13 01:13:28;;;;;;;10.03;2.60;;;;;;;9.95;nan;102237.78;4857103;29;20802;-87
2022/01/13 01:15:58;;;;;;;4.87;2.00;;;;;;;9.97;nan;102238.47;4897992;29;20461;-87
2022/01/13 01:21:36;;;;;;;5.00;2.30;;;;;;;9.97;nan;102241.22;4803101;29;20457;-86
2022/01/13 01:26:43;;;;;;;8.37;2.23;;;;;;;9.96;nan;102250.41;4822864;29;20462;-86
2022/01/13 01:31:48;;;;;;;15.13;2.93;;;;;;;9.96;nan;102247.69;4808112;29;20481;-87
2022/01/13 01:37:13;;;;;;;6.97;3.20;;;;;;;9.84;nan;102240.69;4826524;29;20456;-86
2022/01/13 01:39:45;;;;;;;9.90;2.20;;;;;;;9.92;nan;102254.47;4878759;29;20454;-86
2022/01/13 01:42:14;;;;;;;6.43;1.80;;;;;;;9.80;nan;102242.91;4882182;29;20462;-86
2022/01/13 01:44:45;;;;;;;8.37;2.23;;;;;;;9.91;nan;102261.78;4878365;29;20475;-86
2022/01/13 01:47:14;;;;;;;8.30;2.03;;;;;;;9.91;nan;102263.66;4863634;29;20462;-87
2022/01/13 01:49:45;;;;;;;15.33;2.40;;;;;;;9.92;nan;102262.66;4863102;29;20467;-86
2022/01/13 01:52:18;;;;;;;6.47;1.73;;;;;;;9.90;nan;102262.81;4896645;29;20450;-86
2022/01/13 01:54:46;;;;;;;10.80;2.33;;;;;;;9.90;nan;102267.41;4882325;29;20946;-87
2022/01/13 01:57:18;;;;;;;5.50;2.30;;;;;;;9.89;nan;102261.06;4896807;29;20474;-87
2022/01/13 01:59:46;;;;;;;8.67;1.97;;;;;;;9.84;nan;102257.94;4897209;29;20826;-88
2022/01/13 02:02:15;;;;;;;7.17;2.10;;;;;;;9.86;nan;102257.78;4866885;29;20461;-87
2022/01/13 02:04:44;;;;;;;7.60;2.00;;;;;;;9.83;nan;102250.75;4881940;29;20486;-88
2022/01/13 02:07:13;;;;;;;6.00;1.80;;;;;;;9.82;nan;102256.38;4866525;29;20945;-87
2022/01/13 02:09:43;;;;;;;10.07;1.90;;;;;;;9.78;nan;102254.97;4881780;29;20473;-87
2022/01/13 02:12:18;;;;;;;10.63;2.00;;;;;;;9.80;nan;102261.16;4866650;29;20467;-87
2022/01/13 02:14:56;;;;;;;6.93;1.70;;;;;;;9.77;nan;102261.44;4880947;29;20457;-87
2022/01/13 02:17:27;;;;;;;8.90;2.30;;;;;;;9.77;nan;102267.75;4882872;29;20950;-88
2022/01/13 02:19:57;;;;;;;7.83;1.90;;;;;;;9.72;nan;102263.75;4882206;29;20458;-87
2022/01/13 02:22:28;;;;;;;3.93;1.87;;;;;;;9.69;nan;102260.31;4881220;29;20844;-88
2022/01/13 02:24:58;;;;;;;3.50;1.60;;;;;;;9.74;nan;102261.75;4895843;29;20477;-88
2022/01/13 02:27:26;;;;;;;14.50;2.50;;;;;;;9.74;nan;102268.06;4896961;29;20466;-88
2022/01/13 02:29:54;;;;;;;8.97;1.80;;;;;;;9.72;nan;102269.22;4896637;29;20459;-88
2022/01/13 02:32:22;;;;;;;8.77;1.60;;;;;;;9.73;nan;102273.66;4866334;29;20996;-88
2022/01/13 02:34:50;;;;;;;3.40;1.37;;;;;;;9.69;nan;102263.03;4873002;29;20459;-87
2022/01/13 02:37:20;;;;;;;10.93;2.30;;;;;;;9.69;nan;102265.78;4871080;29;20459;-88
2022/01/13 02:39:48;;;;;;;15.40;1.77;;;;;;;9.69;nan;102271.25;4878744;29;20446;-88
2022/01/13 02:42:18;;;;;;;6.60;1.93;;;;;;;9.65;nan;102264.34;4847644;29;20450;-87
2022/01/13 02:45:15;;;;;;;6.97;1.83;;;;;;;9.68;nan;102264.06;4889196;29;20478;-87
2022/01/13 02:50:11;;;;;;;10.40;1.80;;;;;;;9.59;nan;102264.97;4911819;29;20458;-87
2022/01/13 02:52:39;;;;;;;5.80;2.00;;;;;;;9.54;nan;102261.81;4862475;29;20466;-87
2022/01/13 02:55:07;;;;;;;3.27;1.70;;;;;;;9.58;nan;102263.25;4862779;29;20457;-87
2022/01/13 02:57:35;;;;;;;6.27;2.03;;;;;;;9.58;nan;102259.66;4846201;29;20488;-88
2022/01/13 03:00:04;;;;;;;12.47;1.97;;;;;;;9.52;nan;102252.94;4832875;29;20458;-86
2022/01/13 03:02:32;;;;;;;5.23;2.50;;;;;;;9.48;nan;102248.78;4863035;29;20898;-88
2022/01/13 03:05:00;;;;;;;9.10;1.90;;;;;;;9.51;nan;102255.81;4832584;29;20496;-87
2022/01/13 03:07:33;;;;;;;8.73;2.03;;;;;;;9.50;nan;102254.09;4797756;29;20465;-87
2022/01/13 03:10:02;;;;;;;5.97;1.27;;;;;;;9.49;nan;102255.94;4810197;29;20479;-88
2022/01/13 03:12:33;;;;;;;12.40;1.70;;;;;;;9.45;nan;102251.78;4809825;29;20899;-88
2022/01/13 03:15:01;;;;;;;8.43;1.63;;;;;;;9.33;nan;102234.75;4810036;29;20897;-88
2022/01/13 03:17:28;;;;;;;9.70;4.00;;;;;;;9.42;nan;102260.31;4810357;29;20461;-87
2022/01/13 03:19:58;;;;;;;21.13;8.30;;;;;;;9.34;nan;102261.03;4795069;29;20574;-87
2022/01/13 03:22:26;;;;;;;22.23;7.17;;;;;;;9.28;nan;102255.31;4810117;29;20474;-88
2022/01/13 03:24:54;;;;;;;17.47;7.47;;;;;;;9.22;nan;102261.38;4795332;29;20505;-88
2022/01/13 03:27:33;;;;;;;17.83;7.50;;;;;;;9.19;nan;102261.66;4824897;29;20473;-89
2022/01/13 03:30:25;;;;;;;14.50;5.33;;;;;;;9.24;nan;102272.97;4826474;29;20863;-87
2022/01/13 03:32:52;;;;;;;10.77;4.50;;;;;;;9.19;nan;102272.56;4867021;29;20451;-88
2022/01/13 03:35:21;;;;;;;17.20;6.53;;;;;;;9.18;nan;102271.72;4832538;29;20531;-89
2022/01/13 03:37:49;;;;;;;10.07;2.90;;;;;;;9.13;nan;102273.16;4847379;29;20452;-87
2022/01/13 03:40:18;;;;;;;5.17;1.80;;;;;;;8.97;nan;102258.25;4862451;29;20535;-87
2022/01/13 03:42:47;;;;;;;5.80;2.20;;;;;;;8.90;nan;102273.47;4847323;29;20460;-86
2022/01/13 03:45:15;;;;;;;4.73;1.50;;;;;;;8.84;nan;102263.16;4832440;29;20483;-86
2022/01/13 03:47:43;;;;;;;7.67;1.30;;;;;;;8.78;nan;102269.19;4831876;29;20936;-87
2022/01/13 03:50:11;;;;;;;7.83;1.73;;;;;;;8.74;nan;102273.22;4806624;29;20463;-87
2022/01/13 03:53:02;;;;;;;5.07;1.50;;;;;;;8.72;nan;102275.22;4791682;29;21019;-86
2022/01/13 03:55:36;;;;;;;3.40;1.50;;;;;;;8.74;nan;102278.66;4807394;29;20480;-87
2022/01/13 03:58:40;;;;;;;3.20;1.53;;;;;;;8.76;nan;102283.97;4835730;29;20479;-87
2022/01/13 04:01:26;;;;;;;3.97;1.43;;;;;;;8.79;nan;102286.41;4845690;29;20520;-87
2022/01/13 04:03:54;;;;;;;4.43;1.40;;;;;;;8.75;nan;102280.38;4860731;29;20480;-87
2022/01/13 04:06:22;;;;;;;3.30;1.60;;;;;;;8.77;nan;102283.81;4830780;29;20459;-87
2022/01/13 04:08:50;;;;;;;5.30;1.80;;;;;;;8.73;nan;102276.06;4867693;29;20451;-88
2022/01/13 04:11:19;;;;;;;4.10;1.30;;;;;;;8.76;nan;102279.38;4854610;29;20980;-87
2022/01/13 04:14:01;;;;;;;4.63;1.83;;;;;;;8.74;nan;102283.25;4865078;29;20451;-87
2022/01/13 04:16:31;;;;;;;3.27;1.40;;;;;;;8.74;nan;102270.47;4834015;29;20482;-88
2022/01/13 04:19:04;;;;;;;5.57;1.80;;;;;;;8.73;nan;102268.75;4845823;29;20455;-88
2022/01/13 04:21:37;;;;;;;2.00;1.03;;;;;;;8.76;nan;102273.94;4849580;29;20458;-88
2022/01/13 04:24:06;;;;;;;4.60;1.20;;;;;;;8.73;nan;102271.47;4776251;29;20493;-88
2022/01/13 04:26:34;;;;;;;6.10;1.70;;;;;;;8.75;nan;102264.03;4790841;29;20459;-87
2022/01/13 04:31:33;;;;;;;3.20;1.20;;;;;;;8.77;nan;102261.16;4791090;29;20551;-88
2022/01/13 04:34:01;;;;;;;12.07;1.73;;;;;;;8.81;nan;102268.03;4793806;29;20465;-87
2022/01/13 04:36:28;;;;;;;8.50;1.70;;;;;;;8.82;nan;102264.31;4788731;29;20458;-88
2022/01/13 04:38:59;;;;;;;4.70;1.47;;;;;;;8.85;nan;102270.31;4791030;29;20486;-87
2022/01/13 04:41:35;;;;;;;3.50;1.03;;;;;;;8.89;nan;102273.63;4782106;29;20453;-87
2022/01/13 04:44:14;;;;;;;5.77;1.17;;;;;;;8.86;nan;102271.19;4812783;29;20585;-88
2022/01/13 04:46:42;;;;;;;4.57;1.27;;;;;;;8.77;nan;102259.28;4812924;29;20456;-88
2022/01/13 04:49:10;;;;;;;2.57;0.90;;;;;;;8.84;nan;102268.63;4812001;29;20520;-87
2022/01/13 04:51:39;;;;;;;2.50;1.10;;;;;;;8.85;nan;102275.75;4811848;29;20460;-88
2022/01/13 04:54:09;;;;;;;1.73;1.20;;;;;;;8.89;nan;102282.66;4825433;29;20451;-88
2022/01/13 04:59:18;;;;;;;4.67;1.47;;;;;;;8.92;nan;102276.06;4871087;29;20808;-87
2022/01/13 05:01:46;;;;;;;2.43;0.83;;;;;;;8.92;nan;102268.75;4867907;29;20953;-88
2022/01/13 05:04:14;;;;;;;2.50;1.20;;;;;;;8.93;nan;102272.31;4882795;29;20492;-87
2022/01/13 05:06:44;;;;;;;4.30;1.00;;;;;;;8.86;nan;102266.59;4901557;29;20457;-87
2022/01/13 05:09:12;;;;;;;1.63;1.00;;;;;;;8.91;nan;102268.88;4886040;29;20457;-87
2022/01/13 05:11:41;;;;;;;4.23;1.23;;;;;;;8.91;nan;102274.34;4870934;29;20465;-87
2022/01/13 05:14:09;;;;;;;4.40;1.30;;;;;;;8.92;nan;102276.91;4901403;29;20464;-86
2022/01/13 05:17:06;;;;;;;2.70;1.03;;;;;;;8.91;nan;102285.25;4870652;29;20449;-86
2022/01/13 05:19:44;;;;;;;2.90;1.20;;;;;;;8.87;nan;102275.63;4877596;29;20508;-87
2022/01/13 05:24:49;;;;;;;2.20;1.20;;;;;;;8.87;nan;102267.44;4915974;29;20481;-86
2022/01/13 05:27:19;;;;;;;4.07;1.00;;;;;;;8.86;nan;102272.03;4867571;29;20454;-87
2022/01/13 05:29:47;;;;;;;5.53;1.30;;;;;;;8.80;nan;102256.28;4867220;29;20449;-87
2022/01/13 05:32:15;;;;;;;5.23;1.13;;;;;;;8.84;nan;102265.03;4881193;29;20454;-87
2022/01/13 05:34:44;;;;;;;4.67;1.23;;;;;;;8.88;nan;102267.31;4866485;29;20449;-87
2022/01/13 05:37:15;;;;;;;4.47;1.00;;;;;;;8.90;nan;102272.63;4898333;29;20481;-89
2022/01/13 05:39:43;;;;;;;2.57;0.83;;;;;;;8.88;nan;102269.16;4867067;29;20452;-86
2022/01/13 05:42:11;;;;;;;5.53;1.47;;;;;;;8.89;nan;102263.56;4866612;29;20968;-87
2022/01/13 05:44:39;;;;;;;3.73;1.00;;;;;;;8.91;nan;102275.19;4851492;29;20491;-86
2022/01/13 05:47:10;;;;;;;4.03;0.70;;;;;;;8.90;nan;102268.03;4851780;29;21016;-88
2022/01/13 05:49:41;;;;;;;6.77;1.13;;;;;;;8.91;nan;102280.66;4866916;29;20965;-87
2022/01/13 05:52:11;;;;;;;2.80;0.90;;;;;;;8.91;nan;102275.19;4852391;29;20454;-87
2022/01/13 05:54:39;;;;;;;5.63;1.10;;;;;;;8.91;nan;102291.56;4870067;29;20456;-87
2022/01/13 05:57:08;;;;;;;7.93;1.23;;;;;;;8.89;nan;102279.94;4881724;29;20481;-87
2022/01/13 05:59:36;;;;;;;3.40;1.43;;;;;;;8.91;nan;102291.56;4879084;29;20981;-87
2022/01/13 06:02:04;;;;;;;3.07;1.10;;;;;;;8.87;nan;102286.53;4863545;29;20454;-87
2022/01/13 06:04:32;;;;;;;3.00;0.80;;;;;;;8.89;nan;102292.69;4863403;29;20992;-87
2022/01/13 06:07:00;;;;;;;3.43;1.13;;;;;;;8.85;nan;102283.94;4892022;29;20454;-87
2022/01/13 06:09:28;;;;;;;3.77;0.80;;;;;;;8.83;nan;102283.25;4863282;29;20451;-87
2022/01/13 06:12:02;;;;;;;9.23;0.90;;;;;;;8.80;nan;102294.44;4848127;29;20451;-87
2022/01/13 06:14:30;;;;;;;2.50;1.00;;;;;;;8.85;nan;102296.75;4879568;29;20857;-87
2022/01/13 06:16:58;;;;;;;7.40;1.10;;;;;;;8.82;nan;102302.47;4847912;29;20462;-87
2022/01/13 06:19:27;;;;;;;3.47;1.07;;;;;;;8.79;nan;102305.50;4880583;29;20462;-88
2022/01/13 06:21:56;;;;;;;3.70;1.00;;;;;;;8.80;nan;102302.63;4881848;29;20958;-87
2022/01/13 06:24:26;;;;;;;8.13;1.43;;;;;;;8.83;nan;102307.78;4831707;29;20491;-88
2022/01/13 06:27:00;;;;;;;3.30;0.93;;;;;;;8.80;nan;102297.16;4862428;29;20469;-88
2022/01/13 06:29:29;;;;;;;3.40;1.10;;;;;;;8.76;nan;102298.47;4861988;29;20470;-87
2022/01/13 06:31:59;;;;;;;7.60;1.10;;;;;;;8.82;nan;102319.69;4876680;29;20482;-87
2022/01/13 06:34:26;;;;;;;2.07;0.80;;;;;;;8.78;nan;102312.81;4847252;29;20474;-86
2022/01/13 06:36:54;;;;;;;4.40;1.10;;;;;;;8.79;nan;102317.25;4845438;29;20459;-87
2022/01/13 06:39:22;;;;;;;2.07;0.60;;;;;;;8.81;nan;102320.72;4846117;29;20455;-88
2022/01/13 06:41:51;;;;;;;3.57;1.17;;;;;;;8.71;nan;102303.47;4863050;29;20462;-87
2022/01/13 06:44:19;;;;;;;3.73;1.07;;;;;;;8.68;nan;102306.47;4878099;29;20546;-87
2022/01/13 06:46:47;;;;;;;3.03;1.17;;;;;;;8.77;nan;102327.44;4862941;29;20455;-87
2022/01/13 06:49:15;;;;;;;2.53;1.10;;;;;;;8.78;nan;102318.25;4878200;29;20451;-87
2022/01/13 06:51:44;;;;;;;5.20;1.27;;;;;;;8.79;nan;102324.56;4877840;29;20464;-87
2022/01/13 06:54:13;;;;;;;2.60;1.20;;;;;;;8.82;nan;102325.16;4865169;29;20452;-87
2022/01/13 06:56:41;;;;;;;11.37;1.07;;;;;;;8.82;nan;102330.59;4880484;29;20506;-88
2022/01/13 06:59:11;;;;;;;7.50;1.80;;;;;;;8.82;nan;102337.91;4896829;29;20457;-87
2022/01/13 07:01:39;;;;;;;1.73;0.93;;;;;;;8.84;nan;102336.78;4881435;29;20465;-87
2022/01/13 07:04:13;;;;;;;3.47;0.80;;;;;;;8.83;nan;102342.38;4880855;29;20490;-87
2022/01/13 07:06:42;;;;;;;3.90;0.97;;;;;;;8.79;nan;102335.47;4884588;29;20488;-87
2022/01/13 07:09:14;;;;;;;3.30;1.00;;;;;;;8.86;nan;102340.19;4884833;29;20461;-87
2022/01/13 07:11:42;;;;;;;4.97;1.17;;;;;;;8.86;nan;102345.66;4884583;29;20959;-87
2022/01/13 07:14:10;;;;;;;4.10;1.03;;;;;;;8.85;nan;102345.81;4884537;29;20460;-86
2022/01/13 07:16:40;;;;;;;6.47;1.37;;;;;;;8.87;nan;102358.28;4884301;29;20457;-87
2022/01/13 07:19:09;;;;;;;8.73;1.40;;;;;;;8.88;nan;102342.78;4895597;29;20457;-86
2022/01/13 07:21:39;;;;;;;2.20;1.17;;;;;;;8.90;nan;102355.25;4865948;29;20513;-87
2022/01/13 07:24:08;;;;;;;4.30;1.50;;;;;;;8.89;nan;102348.09;4850510;29;20450;-87
2022/01/13 07:26:36;;;;;;;2.17;0.80;;;;;;;8.91;nan;102348.81;4865922;29;20988;-87
2022/01/13 07:29:05;;;;;;;6.20;1.47;;;;;;;8.96;nan;102357.44;4881026;29;20454;-87
2022/01/13 07:31:35;;;;;;;3.97;1.47;;;;;;;8.98;nan;102355.44;4881033;29;20815;-87
2022/01/13 07:34:03;;;;;;;7.23;1.93;;;;;;;8.99;nan;102353.56;4864247;29;20462;-87
2022/01/13 07:36:31;;;;;;;5.70;1.13;;;;;;;8.91;nan;102329.72;4850574;29;20466;-87
2022/01/13 07:38:59;;;;;;;3.40;0.90;;;;;;;9.03;nan;102356.88;4865969;29;20457;-87
2022/01/13 07:41:27;;;;;;;4.33;1.10;;;;;;;8.97;nan;102356.44;4850769;29;20455;-87
2022/01/13 07:43:58;;;;;;;7.77;1.33;;;;;;;9.05;nan;102357.56;4853397;29;20938;-87
2022/01/13 07:46:28;;;;;;;6.10;1.40;;;;;;;9.06;nan;102365.59;4897201;29;20453;-87
2022/01/13 07:48:56;;;;;;;3.70;1.20;;;;;;;9.01;nan;102365.19;4887527;29;20449;-87
2022/01/13 07:51:26;;;;;;;11.63;1.57;;;;;;;9.03;nan;102362.31;4887522;29;20445;-87
2022/01/13 07:53:54;;;;;;;3.37;1.30;;;;;;;8.99;nan;102351.69;4903050;29;20445;-87
2022/01/13 07:56:23;;;;;;;8.40;1.60;;;;;;;9.04;nan;102369.50;4902665;29;20451;-87
2022/01/13 07:58:53;;;;;;;5.20;1.30;;;;;;;9.05;nan;102374.78;4899223;29;20474;-87
2022/01/13 08:01:21;;;;;;;4.30;1.03;;;;;;;9.05;nan;102372.06;4897151;29;20458;-87
2022/01/13 08:03:53;;;;;;;8.17;1.50;;;;;;;8.97;nan;102364.59;4868481;29;20462;-89
2022/01/13 08:06:24;;;;;;;4.83;1.70;;;;;;;9.04;nan;102373.09;4869367;29;20485;-88
2022/01/13 08:08:52;;;;;;;6.93;1.87;;;;;;;9.06;nan;102373.78;4853533;29;20458;-87
2022/01/13 08:11:23;;;;;;;3.93;1.53;;;;;;;9.05;nan;102373.91;4852905;29;20454;-88
2022/01/13 08:13:54;;;;;;;9.23;1.50;;;;;;;9.08;nan;102379.94;4883602;29;20469;-88
2022/01/13 08:16:24;;;;;;;5.73;1.13;;;;;;;8.99;nan;102372.66;4888296;29;20949;-87
2022/01/13 08:21:38;;;;;;;5.13;1.23;;;;;;;9.07;nan;102378.22;4902676;29;20461;-87
2022/01/13 08:24:07;;;;;;;7.73;2.57;;;;;;;9.20;nan;102394.31;4902033;29;20476;-87
2022/01/13 08:26:35;;;;;;;6.73;1.20;;;;;;;9.22;nan;102390.44;4890360;29;21005;-87
2022/01/13 08:29:04;;;;;;;9.00;1.50;;;;;;;9.26;nan;102385.53;4890201;29;20976;-89
2022/01/13 08:31:33;;;;;;;7.03;1.80;;;;;;;9.32;nan;102393.16;4866339;29;20461;-91
2022/01/13 08:34:01;;;;;;;2.93;1.00;;;;;;;9.37;nan;102390.00;4867209;29;20455;-88
2022/01/13 08:36:30;;;;;;;3.67;1.10;;;;;;;9.35;nan;102381.94;4857788;29;20462;-89
2022/01/13 08:38:58;;;;;;;4.77;1.50;;;;;;;9.44;nan;102394.69;4894136;29;20454;-87
2022/01/13 08:41:25;;;;;;;5.47;1.90;;;;;;;9.51;nan;102397.72;4868124;29;20454;-88
2022/01/13 08:43:59;;;;;;;6.90;1.83;;;;;;;9.62;nan;102401.13;4881423;29;20457;-88
2022/01/13 08:46:28;;;;;;;6.50;2.07;;;;;;;9.67;nan;102403.44;4891034;29;20547;-91
2022/01/13 08:49:17;;;;;;;5.90;1.70;;;;;;;9.64;nan;102377.28;4861159;29;20450;-90
2022/01/13 09:15:36;;;;;;;3.27;1.20;;;;;;;10.47;nan;102399.25;4880249;29;20434;-90
2022/01/13 09:18:47;;;;;;;6.13;1.83;;;;;;;10.62;nan;102409.53;4869274;29;20454;-88
2022/01/13 09:21:17;;;;;;;4.70;1.10;;;;;;;10.64;nan;102402.03;4861098;29;20503;-88
2022/01/13 09:23:46;;;;;;;4.83;1.10;;;;;;;10.85;nan;102422.78;4869839;29;20463;-88
2022/01/13 09:26:15;;;;;;;22.93;6.83;;;;;;;10.92;nan;102416.53;4867719;29;20480;-88
2022/01/13 09:28:43;;;;;;;13.40;4.63;;;;;;;10.99;nan;102414.03;4825697;29;20464;-87
2022/01/13 09:31:11;;;;;;;25.63;9.93;;;;;;;11.11;nan;102420.13;4806993;29;20462;-87
2022/01/13 09:33:42;;;;;;;10.90;4.40;;;;;;;11.16;nan;102412.34;4825377;29;20469;-87
2022/01/13 09:36:12;;;;;;;13.80;5.07;;;;;;;11.35;nan;102428.59;4824254;29;20457;-90
2022/01/13 09:42:33;;;;;;;6.70;2.30;;;;;;;11.45;nan;102423.00;4768332;30;20642;-90
2022/01/13 09:46:08;;;;;;;13.60;2.80;;;;;;;11.47;nan;102419.09;4733173;30;20506;-90
2022/01/13 10:24:36;;;;;;;176.37;67.70;;;;;;;12.86;nan;102427.09;4916912;29;20472;-87
2022/01/13 10:27:05;;;;;;;44.83;18.33;;;;;;;13.16;nan;102433.00;4900673;29;20948;-87
2022/01/13 10:29:49;;;;;;;11.83;3.60;;;;;;;13.33;nan;102438.34;4885143;29;20450;-85
2022/01/13 10:32:32;;;;;;;9.80;3.00;;;;;;;13.38;nan;102448.81;4872597;29;20450;-85
2022/01/13 10:35:14;;;;;;;34.23;3.73;;;;;;;13.28;nan;102428.88;4867892;29;20478;-84
2022/01/13 10:37:44;;;;;;;11.00;3.00;;;;;;;13.40;nan;102444.00;4899014;29;20461;-86
2022/01/13 10:40:19;;;;;;;19.97;3.10;;;;;;;13.45;nan;102452.59;4884347;29;20453;-85
2022/01/13 10:45:28;;;;;;;23.23;3.60;;;;;;;13.53;nan;102459.97;4911493;29;21010;-85
2022/01/13 10:47:58;;;;;;;26.47;4.17;;;;;;;13.54;nan;102448.81;4880328;29;20449;-85
2022/01/13 10:50:29;;;;;;;8.30;2.00;;;;;;;13.64;nan;102478.88;4896562;29;20445;-85
2022/01/13 10:53:02;;;;;;;11.00;2.10;;;;;;;13.65;nan;102458.63;4850924;29;20465;-85
2022/01/13 10:55:31;;;;;;;9.40;1.60;;;;;;;13.66;nan;102455.69;4851839;29;20509;-87
2022/01/13 10:58:08;;;;;;;15.43;2.23;;;;;;;13.79;nan;102456.03;4868720;29;20980;-87
2022/01/13 11:00:37;;;;;;;15.27;2.50;;;;;;;13.89;nan;102454.97;4866141;29;20450;-86
2022/01/13 11:03:16;;;;;;;18.10;3.63;;;;;;;13.95;nan;102465.28;4850786;29;20518;-86
2022/01/13 11:05:45;;;;;;;21.73;2.77;;;;;;;14.03;nan;102462.53;4851269;29;20497;-86
2022/01/13 11:08:23;;;;;;;28.40;2.77;;;;;;;14.08;nan;102457.34;4865881;29;20468;-86
2022/01/13 11:10:52;;;;;;;16.30;2.40;;;;;;;14.17;nan;102459.94;4881269;29;20526;-86
2022/01/13 11:13:21;;;;;;;47.43;4.13;;;;;;;14.22;nan;102445.66;4865711;29;20469;-87
2022/01/13 11:15:53;;;;;;;6.60;1.80;;;;;;;14.31;nan;102449.22;4850747;29;20864;-86
2022/01/13 11:18:28;;;;;;;10.90;2.07;;;;;;;14.38;nan;102448.34;4853627;29;20461;-86
2022/01/13 11:20:56;;;;;;;11.83;1.90;;;;;;;14.49;nan;102434.22;4870312;29;20446;-86
2022/01/13 11:23:24;;;;;;;9.97;2.90;;;;;;;14.64;nan;102458.22;4850683;29;20482;-86
2022/01/13 11:25:53;;;;;;;15.10;2.23;;;;;;;14.71;nan;102456.50;4877695;29;20494;-86
2022/01/13 11:28:21;;;;;;;12.90;2.33;;;;;;;14.74;nan;102450.63;4869948;29;20954;-86
2022/01/13 11:30:52;;;;;;;10.10;1.43;;;;;;;14.77;nan;102444.78;4856662;29;20476;-86
2022/01/13 11:33:20;;;;;;;9.60;1.37;;;;;;;14.76;nan;102432.91;4868102;29;20453;-87
2022/01/13 11:35:55;;;;;;;11.87;2.37;;;;;;;14.76;nan;102426.53;4881541;29;20486;-86
2022/01/13 11:38:27;;;;;;;9.67;1.80;;;;;;;14.84;nan;102429.25;4869205;29;20457;-86
2022/01/13 11:41:02;;;;;;;5.30;1.50;;;;;;;14.96;nan;102433.31;4880842;29;20958;-86
2022/01/13 11:43:36;;;;;;;11.73;2.37;;;;;;;15.05;nan;102431.34;4865647;29;20534;-86
2022/01/13 11:46:21;;;;;;;8.40;2.37;;;;;;;15.12;nan;102427.69;4851031;29;21071;-86
2022/01/13 11:49:14;;;;;;;13.77;3.07;;;;;;;15.22;nan;102416.44;4851338;29;20455;-87
2022/01/13 11:51:58;;;;;;;5.23;1.20;;;;;;;15.19;nan;102412.16;4868473;29;20682;-90
2022/01/13 11:54:34;;;;;;;13.10;3.77;;;;;;;15.27;nan;102408.47;4861786;29;20459;-89
2022/01/13 11:57:23;;;;;;;9.30;2.80;;;;;;;15.30;nan;102399.00;4896632;29;20458;-87
2022/01/13 12:00:00;;;;;;;11.63;3.03;;;;;;;15.33;nan;102402.25;4869816;29;20466;-88
2022/01/13 12:02:32;;;;;;;13.80;2.47;;;;;;;15.39;nan;102407.03;4886058;29;20484;-87
2022/01/13 12:05:14;;;;;;;8.20;2.50;;;;;;;15.42;nan;102406.63;4877545;29;20461;-87
2022/01/13 12:07:53;;;;;;;12.27;4.00;;;;;;;15.44;nan;102387.16;4896134;29;20493;-87
2022/01/13 12:10:20;;;;;;;26.17;5.07;;;;;;;15.51;nan;102399.16;4878154;29;20454;-88
2022/01/13 12:12:48;;;;;;;12.90;3.10;;;;;;;15.55;nan;102389.47;4898392;29;20465;-87
2022/01/13 12:15:16;;;;;;;21.10;3.77;;;;;;;15.63;nan;102381.16;4879717;29;20471;-87
2022/01/13 12:17:52;;;;;;;10.00;2.40;;;;;;;15.71;nan;102388.50;4909579;29;20457;-88
2022/01/13 12:20:39;;;;;;;17.73;3.67;;;;;;;15.78;nan;102382.03;4868518;29;20473;-87
2022/01/13 12:23:41;;;;;;;17.53;3.30;;;;;;;15.80;nan;102376.31;4899277;29;20482;-86
2022/01/13 12:26:33;;;;;;;12.03;3.60;;;;;;;15.93;nan;102364.66;4883254;29;20490;-87
2022/01/13 12:29:19;;;;;;;12.37;2.27;;;;;;;16.08;nan;102369.13;4899119;29;20466;-86
2022/01/13 12:32:01;;;;;;;17.87;3.63;;;;;;;16.12;nan;102369.59;4901374;29;20788;-89
2022/01/13 12:34:29;;;;;;;13.10;2.83;;;;;;;16.10;nan;102355.16;4889900;29;20461;-86
2022/01/13 12:36:57;;;;;;;29.17;2.70;;;;;;;16.06;nan;102351.91;4883009;29;20787;-87
2022/01/13 12:39:26;;;;;;;8.37;1.93;;;;;;;16.08;nan;102351.72;4867490;29;20842;-87
2022/01/13 12:41:59;;;;;;;17.00;3.37;;;;;;;16.19;nan;102345.72;4853677;29;20473;-87
2022/01/13 12:47:14;;;;;;;14.33;2.30;;;;;;;16.37;nan;102354.44;4885010;29;20490;-86
2022/01/13 12:49:51;;;;;;;18.50;2.10;;;;;;;16.40;nan;102334.75;4871243;29;20494;-86
2022/01/13 12:52:20;;;;;;;15.70;2.77;;;;;;;16.43;nan;102334.34;4888839;29;20457;-87
2022/01/13 12:54:50;;;;;;;18.10;4.10;;;;;;;16.48;nan;102333.78;4880346;29;20470;-86
2022/01/13 12:57:18;;;;;;;16.93;5.80;;;;;;;16.53;nan;102323.88;4894542;29;21035;-86
2022/01/13 12:59:46;;;;;;;21.27;3.07;;;;;;;16.57;nan;102333.47;4886025;29;20461;-86
2022/01/13 13:02:14;;;;;;;12.13;2.50;;;;;;;16.60;nan;102334.97;4910290;29;20889;-87
2022/01/13 13:04:42;;;;;;;17.77;4.90;;;;;;;16.66;nan;102336.16;4867554;29;20454;-86
2022/01/13 13:07:09;;;;;;;11.40;3.03;;;;;;;16.68;nan;102329.38;4867185;29;20490;-86
2022/01/13 13:09:37;;;;;;;18.60;2.90;;;;;;;16.73;nan;102334.34;4867480;29;20813;-86
2022/01/13 13:12:11;;;;;;;13.47;3.50;;;;;;;16.68;nan;102328.53;4896386;29;20806;-87
2022/01/13 13:17:38;;;;;;;7.97;2.97;;;;;;;16.63;nan;102331.88;4909877;29;20446;-87
2022/01/13 13:20:06;;;;;;;22.90;2.37;;;;;;;16.70;nan;102324.53;4901115;29;20527;-87
2022/01/13 13:22:46;;;;;;;16.37;3.27;;;;;;;16.72;nan;102321.56;4870159;29;20453;-88
2022/01/13 13:26:05;;;;;;;19.53;3.80;;;;;;;16.80;nan;102325.03;4863844;29;20815;-87
2022/01/13 13:28:54;;;;;;;14.20;2.40;;;;;;;16.80;nan;102324.19;4878373;29;20451;-86
2022/01/13 13:31:24;;;;;;;9.90;2.03;;;;;;;16.89;nan;102318.34;4863611;29;20447;-86
2022/01/13 13:34:06;;;;;;;9.60;2.73;;;;;;;17.03;nan;102319.34;4863797;29;20529;-86
2022/01/13 13:36:37;;;;;;;16.33;2.30;;;;;;;17.13;nan;102307.94;4848311;29;20458;-87
2022/01/13 13:39:11;;;;;;;25.67;3.57;;;;;;;17.21;nan;102314.19;4876357;29;20455;-87
2022/01/13 13:41:43;;;;;;;8.40;2.00;;;;;;;17.26;nan;102314.44;4862491;29;20463;-86
2022/01/13 13:44:20;;;;;;;7.10;1.83;;;;;;;17.29;nan;102309.59;4866976;29;20953;-86
2022/01/13 13:47:02;;;;;;;11.13;2.37;;;;;;;17.22;nan;102306.75;4859766;29;20484;-88
2022/01/13 13:49:31;;;;;;;13.17;2.27;;;;;;;17.07;nan;102312.38;4878285;29;20467;-86